sensor_id;sensor_type;location;lat;lon;timestamp;pressure;altitude;pressure_sealevel;temperature;humidity
46129;BME280;31860;45.186;5.790;2023-04-28T00:01:12;99137.78;;;20.00;58.64
46129;BME280;31860;45.186;5.790;2023-04-28T00:03:38;99143.94;;;20.01;58.58
46129;BME280;31860;45.186;5.790;2023-04-28T00:06:03;99147.47;;;20.01;58.81
46129;BME280;31860;45.186;5.790;2023-04-28T00:08:29;99149.25;;;20.01;59.00
46129;BME280;31860;45.186;5.790;2023-04-28T00:10:54;99145.69;;;20.02;58.92
46129;BME280;31860;45.186;5.790;2023-04-28T00:13:19;99145.69;;;20.02;59.04
46129;BME280;31860;45.186;5.790;2023-04-28T00:15:45;99157.19;;;20.01;59.09
46129;BME280;31860;45.186;5.790;2023-04-28T00:18:10;99158.88;;;20.03;59.04
46129;BME280;31860;45.186;5.790;2023-04-28T00:20:36;99153.56;;;20.03;58.98
46129;BME280;31860;45.186;5.790;2023-04-28T00:23:01;99158.06;;;20.01;59.18
46129;BME280;31860;45.186;5.790;2023-04-28T00:25:27;99149.31;;;19.99;59.58
46129;BME280;31860;45.186;5.790;2023-04-28T00:27:52;99149.25;;;20.01;59.23
46129;BME280;31860;45.186;5.790;2023-04-28T00:30:17;99153.72;;;19.99;58.86
46129;BME280;31860;45.186;5.790;2023-04-28T00:32:43;99150.25;;;19.98;58.64
46129;BME280;31860;45.186;5.790;2023-04-28T00:35:08;99151.16;;;19.97;58.64
46129;BME280;31860;45.186;5.790;2023-04-28T00:37:38;99142.34;;;19.97;59.09
46129;BME280;31860;45.186;5.790;2023-04-28T00:40:04;99140.53;;;19.97;58.79
46129;BME280;31860;45.186;5.790;2023-04-28T00:42:29;99141.34;;;19.99;58.84
46129;BME280;31860;45.186;5.790;2023-04-28T00:44:56;99131.69;;;19.98;58.70
46129;BME280;31860;45.186;5.790;2023-04-28T00:47:22;99136.03;;;19.99;58.60
46129;BME280;31860;45.186;5.790;2023-04-28T00:49:48;99133.31;;;20.01;58.76
46129;BME280;31860;45.186;5.790;2023-04-28T00:52:14;99134.25;;;20.00;58.80
46129;BME280;31860;45.186;5.790;2023-04-28T00:54:40;99132.47;;;20.00;59.25
46129;BME280;31860;45.186;5.790;2023-04-28T00:57:07;99127.22;;;19.99;59.38
46129;BME280;31860;45.186;5.790;2023-04-28T00:59:34;99128.97;;;20.00;60.06
46129;BME280;31860;45.186;5.790;2023-04-28T01:01:59;99128.03;;;20.01;60.15
46129;BME280;31860;45.186;5.790;2023-04-28T01:04:26;99131.53;;;20.01;60.50
46129;BME280;31860;45.186;5.790;2023-04-28T01:06:54;99126.31;;;20.00;60.53
46129;BME280;31860;45.186;5.790;2023-04-28T01:09:20;99126.44;;;19.97;60.30
46129;BME280;31860;45.186;5.790;2023-04-28T01:11:46;99132.59;;;19.97;60.36
46129;BME280;31860;45.186;5.790;2023-04-28T01:14:11;99123.81;;;19.95;60.36
46129;BME280;31860;45.186;5.790;2023-04-28T01:16:37;99130.06;;;19.94;60.33
46129;BME280;31860;45.186;5.790;2023-04-28T01:19:06;99130.06;;;19.94;60.76
46129;BME280;31860;45.186;5.790;2023-04-28T01:21:33;99127.41;;;19.94;60.83
46129;BME280;31860;45.186;5.790;2023-04-28T01:23:59;99129.19;;;19.94;60.30
46129;BME280;31860;45.186;5.790;2023-04-28T01:26:24;99127.50;;;19.91;60.67
46129;BME280;31860;45.186;5.790;2023-04-28T01:28:50;99127.66;;;19.88;61.05
46129;BME280;31860;45.186;5.790;2023-04-28T01:31:16;99128.63;;;19.85;60.96
46129;BME280;31860;45.186;5.790;2023-04-28T01:33:41;99135.72;;;19.85;61.15
46129;BME280;31860;45.186;5.790;2023-04-28T01:36:07;99130.47;;;19.83;60.87
46129;BME280;31860;45.186;5.790;2023-04-28T01:38:32;99123.50;;;19.81;60.76
46129;BME280;31860;45.186;5.790;2023-04-28T01:40:58;99124.41;;;19.80;61.03
46129;BME280;31860;45.186;5.790;2023-04-28T01:43:23;99120.16;;;19.76;61.11
46129;BME280;31860;45.186;5.790;2023-04-28T01:45:49;99141.34;;;19.76;61.11
46129;BME280;31860;45.186;5.790;2023-04-28T01:48:15;99145.00;;;19.73;60.83
46129;BME280;31860;45.186;5.790;2023-04-28T01:50:40;99147.72;;;19.72;61.08
46129;BME280;31860;45.186;5.790;2023-04-28T01:53:06;99150.41;;;19.70;61.41
46129;BME280;31860;45.186;5.790;2023-04-28T01:55:31;99149.59;;;19.68;61.62
46129;BME280;31860;45.186;5.790;2023-04-28T01:57:57;99152.31;;;19.67;61.67
46129;BME280;31860;45.186;5.790;2023-04-28T02:00:22;99147.13;;;19.64;61.51
46129;BME280;31860;45.186;5.790;2023-04-28T02:02:48;99144.59;;;19.61;61.55
46129;BME280;31860;45.186;5.790;2023-04-28T02:05:14;99144.59;;;19.61;61.75
46129;BME280;31860;45.186;5.790;2023-04-28T02:07:39;99145.59;;;19.58;61.57
46129;BME280;31860;45.186;5.790;2023-04-28T02:10:06;99146.53;;;19.56;61.75
46129;BME280;31860;45.186;5.790;2023-04-28T02:12:31;99148.38;;;19.54;61.77
46129;BME280;31860;45.186;5.790;2023-04-28T02:14:57;99154.63;;;19.53;62.01
46129;BME280;31860;45.186;5.790;2023-04-28T02:17:22;99147.63;;;19.50;61.63
46129;BME280;31860;45.186;5.790;2023-04-28T02:19:53;99149.47;;;19.48;62.06
46129;BME280;31860;45.186;5.790;2023-04-28T02:22:18;99150.50;;;19.44;61.54
46129;BME280;31860;45.186;5.790;2023-04-28T02:24:44;99140.91;;;19.42;61.74
46129;BME280;31860;45.186;5.790;2023-04-28T02:27:09;99143.66;;;19.39;61.97
46129;BME280;31860;45.186;5.790;2023-04-28T02:29:35;99152.53;;;19.38;61.97
46129;BME280;31860;45.186;5.790;2023-04-28T02:32:00;99146.41;;;19.36;61.81
46129;BME280;31860;45.186;5.790;2023-04-28T02:34:26;99151.72;;;19.36;61.89
46129;BME280;31860;45.186;5.790;2023-04-28T02:36:51;99153.50;;;19.35;61.86
46129;BME280;31860;45.186;5.790;2023-04-28T02:39:17;99146.53;;;19.31;62.05
46129;BME280;31860;45.186;5.790;2023-04-28T02:41:42;99157.19;;;19.30;63.25
46129;BME280;31860;45.186;5.790;2023-04-28T02:44:08;99156.44;;;19.26;63.94
46129;BME280;31860;45.186;5.790;2023-04-28T02:46:33;99153.84;;;19.25;63.86
46129;BME280;31860;45.186;5.790;2023-04-28T02:48:58;99153.03;;;19.23;64.21
46129;BME280;31860;45.186;5.790;2023-04-28T02:51:24;99139.88;;;19.21;63.81
46129;BME280;31860;45.186;5.790;2023-04-28T02:53:49;99136.34;;;19.21;63.60
46129;BME280;31860;45.186;5.790;2023-04-28T02:56:15;99131.13;;;19.18;63.49
46129;BME280;31860;45.186;5.790;2023-04-28T02:58:40;99143.53;;;19.17;63.35
46129;BME280;31860;45.186;5.790;2023-04-28T03:01:06;99143.56;;;19.16;63.47
46129;BME280;31860;45.186;5.790;2023-04-28T03:03:31;99147.97;;;19.17;63.38
46129;BME280;31860;45.186;5.790;2023-04-28T03:05:56;99145.38;;;19.15;63.01
46129;BME280;31860;45.186;5.790;2023-04-28T03:08:22;99144.56;;;19.13;62.90
46129;BME280;31860;45.186;5.790;2023-04-28T03:10:47;99147.25;;;19.12;62.55
46129;BME280;31860;45.186;5.790;2023-04-28T03:13:13;99148.16;;;19.11;62.14
46129;BME280;31860;45.186;5.790;2023-04-28T03:15:38;99150.88;;;19.09;62.28
46129;BME280;31860;45.186;5.790;2023-04-28T03:18:04;99144.72;;;19.09;62.03
46129;BME280;31860;45.186;5.790;2023-04-28T03:20:29;99143.06;;;19.05;62.19
46129;BME280;31860;45.186;5.790;2023-04-28T03:22:54;99143.13;;;19.03;62.11
46129;BME280;31860;45.186;5.790;2023-04-28T03:25:20;99149.44;;;18.99;62.32
46129;BME280;31860;45.186;5.790;2023-04-28T03:27:45;99148.69;;;18.96;62.37
46129;BME280;31860;45.186;5.790;2023-04-28T03:30:11;99145.25;;;18.93;62.26
46129;BME280;31860;45.186;5.790;2023-04-28T03:32:36;99143.59;;;18.91;62.07
46129;BME280;31860;45.186;5.790;2023-04-28T03:35:02;99154.25;;;18.88;62.06
46129;BME280;31860;45.186;5.790;2023-04-28T03:37:27;99158.66;;;18.89;61.83
46129;BME280;31860;45.186;5.790;2023-04-28T03:39:53;99162.13;;;18.89;61.97
46129;BME280;31860;45.186;5.790;2023-04-28T03:42:18;99170.06;;;18.89;62.81
46129;BME280;31860;45.186;5.790;2023-04-28T03:44:43;99171.00;;;18.88;64.09
46129;BME280;31860;45.186;5.790;2023-04-28T03:47:09;99172.72;;;18.89;64.50
46129;BME280;31860;45.186;5.790;2023-04-28T03:49:35;99185.97;;;18.89;65.26
46129;BME280;31860;45.186;5.790;2023-04-28T03:52:00;99186.91;;;18.88;65.65
46129;BME280;31860;45.186;5.790;2023-04-28T03:54:26;99184.31;;;18.87;66.33
46129;BME280;31860;45.186;5.790;2023-04-28T03:56:51;99176.38;;;18.87;66.45
46129;BME280;31860;45.186;5.790;2023-04-28T03:59:16;99180.84;;;18.85;65.64
46129;BME280;31860;45.186;5.790;2023-04-28T04:01:42;99189.63;;;18.85;64.89
46129;BME280;31860;45.186;5.790;2023-04-28T04:04:07;99188.72;;;18.86;65.36
46129;BME280;31860;45.186;5.790;2023-04-28T04:06:33;99186.19;;;18.83;65.52
46129;BME280;31860;45.186;5.790;2023-04-28T04:08:58;99181.84;;;18.81;65.19
46129;BME280;31860;45.186;5.790;2023-04-28T04:11:24;99180.09;;;18.80;65.07
46129;BME280;31860;45.186;5.790;2023-04-28T04:13:50;99184.56;;;18.79;65.02
46129;BME280;31860;45.186;5.790;2023-04-28T04:16:15;99186.34;;;18.79;64.61
46129;BME280;31860;45.186;5.790;2023-04-28T04:18:41;99197.75;;;18.81;64.45
46129;BME280;31860;45.186;5.790;2023-04-28T04:21:06;99194.97;;;18.84;64.10
46129;BME280;31860;45.186;5.790;2023-04-28T04:23:32;99193.19;;;18.84;63.92
46129;BME280;31860;45.186;5.790;2023-04-28T04:25:57;99201.19;;;18.83;64.32
46129;BME280;31860;45.186;5.790;2023-04-28T04:28:23;99200.28;;;18.84;64.36
46129;BME280;31860;45.186;5.790;2023-04-28T04:30:48;99183.56;;;18.83;64.55
46129;BME280;31860;45.186;5.790;2023-04-28T04:33:14;99180.91;;;18.83;65.15
46129;BME280;31860;45.186;5.790;2023-04-28T04:35:39;99168.63;;;18.81;65.64
46129;BME280;31860;45.186;5.790;2023-04-28T04:38:05;99181.75;;;18.84;65.88
46129;BME280;31860;45.186;5.790;2023-04-28T04:40:31;99175.59;;;18.83;65.61
46129;BME280;31860;45.186;5.790;2023-04-28T04:42:57;99186.06;;;18.86;65.14
46129;BME280;31860;45.186;5.790;2023-04-28T04:45:22;99182.50;;;18.87;64.92
46129;BME280;31860;45.186;5.790;2023-04-28T04:47:47;99187.78;;;18.87;64.65
46129;BME280;31860;45.186;5.790;2023-04-28T04:50:13;99179.91;;;18.86;65.01
46129;BME280;31860;45.186;5.790;2023-04-28T04:52:39;99173.66;;;18.88;64.99
46129;BME280;31860;45.186;5.790;2023-04-28T04:55:05;99174.53;;;18.89;65.34
46129;BME280;31860;45.186;5.790;2023-04-28T04:57:30;99184.25;;;18.88;65.58
46129;BME280;31860;45.186;5.790;2023-04-28T04:59:56;99184.25;;;18.88;66.14
46129;BME280;31860;45.186;5.790;2023-04-28T05:02:21;99186.91;;;18.88;66.60
46129;BME280;31860;45.186;5.790;2023-04-28T05:04:46;99194.84;;;18.88;67.30
46129;BME280;31860;45.186;5.790;2023-04-28T05:07:12;99194.84;;;18.88;68.20
46129;BME280;31860;45.186;5.790;2023-04-28T05:09:38;99195.72;;;18.87;68.63
46129;BME280;31860;45.186;5.790;2023-04-28T05:12:03;99186.03;;;18.88;69.21
46129;BME280;31860;45.186;5.790;2023-04-28T05:14:29;99196.59;;;18.88;68.91
46129;BME280;31860;45.186;5.790;2023-04-28T05:16:54;99188.66;;;18.88;68.54
46129;BME280;31860;45.186;5.790;2023-04-28T05:19:20;99190.44;;;18.87;68.63
46129;BME280;31860;45.186;5.790;2023-04-28T05:21:45;99194.06;;;18.85;68.33
46129;BME280;31860;45.186;5.790;2023-04-28T05:24:14;99191.44;;;18.85;69.10
46129;BME280;31860;45.186;5.790;2023-04-28T05:26:40;99194.16;;;18.82;69.16
46129;BME280;31860;45.186;5.790;2023-04-28T05:29:05;99194.97;;;18.84;69.13
46129;BME280;31860;45.186;5.790;2023-04-28T05:31:31;99196.72;;;18.85;69.32
46129;BME280;31860;45.186;5.790;2023-04-28T05:33:56;99195.84;;;18.84;69.43
46129;BME280;31860;45.186;5.790;2023-04-28T05:36:22;99207.13;;;18.89;69.79
46129;BME280;31860;45.186;5.790;2023-04-28T05:38:48;99201.75;;;18.92;70.52
46129;BME280;31860;45.186;5.790;2023-04-28T05:41:13;99205.16;;;18.96;71.02
46129;BME280;31860;45.186;5.790;2023-04-28T05:43:39;99195.41;;;18.98;71.83
46129;BME280;31860;45.186;5.790;2023-04-28T05:46:04;99198.91;;;18.99;71.44
46129;BME280;31860;45.186;5.790;2023-04-28T05:48:30;99200.56;;;19.01;71.54
46129;BME280;31860;45.186;5.790;2023-04-28T05:50:55;99198.75;;;19.03;72.97
46129;BME280;31860;45.186;5.790;2023-04-28T05:53:20;99206.63;;;19.05;73.96
46129;BME280;31860;45.186;5.790;2023-04-28T05:55:46;99206.59;;;19.06;74.74
46129;BME280;31860;45.186;5.790;2023-04-28T05:58:12;99197.72;;;19.07;75.56
46129;BME280;31860;45.186;5.790;2023-04-28T06:00:37;99194.16;;;19.08;76.19
46129;BME280;31860;45.186;5.790;2023-04-28T06:03:03;99189.78;;;19.07;76.83
46129;BME280;31860;45.186;5.790;2023-04-28T06:05:29;99197.72;;;19.07;77.38
46129;BME280;31860;45.186;5.790;2023-04-28T06:07:54;99202.97;;;19.09;77.78
46129;BME280;31860;45.186;5.790;2023-04-28T06:10:21;99198.53;;;19.09;77.89
46129;BME280;31860;45.186;5.790;2023-04-28T06:12:46;99196.75;;;19.10;78.08
46129;BME280;31860;45.186;5.790;2023-04-28T06:15:12;99202.91;;;19.10;78.06
46129;BME280;31860;45.186;5.790;2023-04-28T06:17:38;99199.34;;;19.11;78.29
46129;BME280;31860;45.186;5.790;2023-04-28T06:20:05;99200.22;;;19.12;78.59
46129;BME280;31860;45.186;5.790;2023-04-28T06:22:30;99199.28;;;19.13;78.92
46129;BME280;31860;45.186;5.790;2023-04-28T06:24:56;99201.81;;;19.17;79.27
46129;BME280;31860;45.186;5.790;2023-04-28T06:27:21;99197.19;;;19.22;79.80
46129;BME280;31860;45.186;5.790;2023-04-28T06:29:47;99190.00;;;19.26;79.82
46129;BME280;31860;45.186;5.790;2023-04-28T06:32:12;99191.56;;;19.31;78.98
46129;BME280;31860;45.186;5.790;2023-04-28T06:34:38;99201.13;;;19.37;78.94
46129;BME280;31860;45.186;5.790;2023-04-28T06:37:04;99196.47;;;19.43;78.79
46129;BME280;31860;45.186;5.790;2023-04-28T06:39:30;99202.47;;;19.48;78.10
46129;BME280;31860;45.186;5.790;2023-04-28T06:41:55;99204.91;;;19.54;77.50
46129;BME280;31860;45.186;5.790;2023-04-28T06:44:21;99202.88;;;19.61;77.33
46129;BME280;31860;45.186;5.790;2023-04-28T06:46:47;99203.66;;;19.64;76.63
46129;BME280;31860;45.186;5.790;2023-04-28T06:49:12;99205.22;;;19.70;76.23
46129;BME280;31860;45.186;5.790;2023-04-28T06:51:38;99212.09;;;19.75;75.39
46129;BME280;31860;45.186;5.790;2023-04-28T06:54:03;99203.03;;;19.81;75.38
46129;BME280;31860;45.186;5.790;2023-04-28T06:56:29;99208.13;;;19.87;75.34
46129;BME280;31860;45.186;5.790;2023-04-28T06:58:55;99203.56;;;19.91;74.61
46129;BME280;31860;45.186;5.790;2023-04-28T07:01:21;99203.28;;;19.98;73.33
46129;BME280;31860;45.186;5.790;2023-04-28T07:03:47;99200.44;;;20.03;72.38
46129;BME280;31860;45.186;5.790;2023-04-28T07:06:12;99211.75;;;20.08;72.16
46129;BME280;31860;45.186;5.790;2023-04-28T07:08:38;99204.41;;;20.14;71.40
46129;BME280;31860;45.186;5.790;2023-04-28T07:11:03;99204.22;;;20.20;71.03
46129;BME280;31860;45.186;5.790;2023-04-28T07:13:29;99203.91;;;20.28;70.42
46129;BME280;31860;45.186;5.790;2023-04-28T07:15:55;99203.63;;;20.35;70.59
46129;BME280;31860;45.186;5.790;2023-04-28T07:18:21;99204.25;;;20.42;70.06
46129;BME280;31860;45.186;5.790;2023-04-28T07:20:46;99196.97;;;20.47;69.62
46129;BME280;31860;45.186;5.790;2023-04-28T07:23:12;99195.72;;;20.55;68.85
46129;BME280;31860;45.186;5.790;2023-04-28T07:25:38;99193.63;;;20.63;67.97
46129;BME280;31860;45.186;5.790;2023-04-28T07:28:05;99194.25;;;20.70;67.75
46129;BME280;31860;45.186;5.790;2023-04-28T07:30:31;99192.13;;;20.78;67.44
46129;BME280;31860;45.186;5.790;2023-04-28T07:32:56;99189.31;;;20.83;66.95
46129;BME280;31860;45.186;5.790;2023-04-28T07:35:22;99191.78;;;20.87;66.08
46129;BME280;31860;45.186;5.790;2023-04-28T07:37:48;99197.81;;;20.91;65.76
46129;BME280;31860;45.186;5.790;2023-04-28T07:40:13;99196.69;;;20.96;65.48
46129;BME280;31860;45.186;5.790;2023-04-28T07:42:38;99194.75;;;21.01;65.26
46129;BME280;31860;45.186;5.790;2023-04-28T07:45:04;99193.63;;;21.07;64.74
46129;BME280;31860;45.186;5.790;2023-04-28T07:47:30;99194.16;;;21.15;64.87
46129;BME280;31860;45.186;5.790;2023-04-28T07:49:56;99196.63;;;21.19;64.20
46129;BME280;31860;45.186;5.790;2023-04-28T07:52:21;99191.09;;;21.24;62.97
46129;BME280;31860;45.186;5.790;2023-04-28T07:54:47;99189.97;;;21.29;62.40
46129;BME280;31860;45.186;5.790;2023-04-28T07:57:12;99189.78;;;21.34;62.13
46129;BME280;31860;45.186;5.790;2023-04-28T07:59:38;99194.03;;;21.38;61.44
46129;BME280;31860;45.186;5.790;2023-04-28T08:02:03;99196.63;;;21.39;61.24
46129;BME280;31860;45.186;5.790;2023-04-28T08:04:30;99209.84;;;21.41;60.74
46129;BME280;31860;45.186;5.790;2023-04-28T08:06:58;99213.31;;;21.43;60.59
46129;BME280;31860;45.186;5.790;2023-04-28T08:09:23;99208.00;;;21.43;60.40
46129;BME280;31860;45.186;5.790;2023-04-28T08:11:49;99201.78;;;21.42;60.00
46129;BME280;31860;45.186;5.790;2023-04-28T08:14:15;99201.69;;;21.45;59.44
46129;BME280;31860;45.186;5.790;2023-04-28T08:16:40;99185.78;;;21.44;59.14
46129;BME280;31860;45.186;5.790;2023-04-28T08:19:06;99188.44;;;21.44;58.48
46129;BME280;31860;45.186;5.790;2023-04-28T08:21:32;99193.63;;;21.47;58.66
46129;BME280;31860;45.186;5.790;2023-04-28T08:23:58;99193.56;;;21.48;58.70
46129;BME280;31860;45.186;5.790;2023-04-28T08:26:24;99192.66;;;21.49;59.07
46129;BME280;31860;45.186;5.790;2023-04-28T08:28:50;99196.06;;;21.51;58.50
46129;BME280;31860;45.186;5.790;2023-04-28T08:31:15;99196.03;;;21.53;58.32
46129;BME280;31860;45.186;5.790;2023-04-28T08:33:41;99187.09;;;21.54;57.93
46129;BME280;31860;45.186;5.790;2023-04-28T08:36:09;99194.97;;;21.57;58.61
46129;BME280;31860;45.186;5.790;2023-04-28T08:38:36;99188.63;;;21.59;59.06
46129;BME280;31860;45.186;5.790;2023-04-28T08:41:04;99194.63;;;21.64;58.50
46129;BME280;31860;45.186;5.790;2023-04-28T08:43:32;99193.59;;;21.67;58.15
46129;BME280;31860;45.186;5.790;2023-04-28T08:46:04;99195.19;;;21.71;57.93
46129;BME280;31860;45.186;5.790;2023-04-28T08:48:32;99193.25;;;21.75;58.00
46129;BME280;31860;45.186;5.790;2023-04-28T08:51:05;99196.63;;;21.78;57.60
46129;BME280;31860;45.186;5.790;2023-04-28T08:53:31;99198.28;;;21.82;57.01
46129;BME280;31860;45.186;5.790;2023-04-28T08:56:04;99191.88;;;21.86;56.28
46129;BME280;31860;45.186;5.790;2023-04-28T08:58:30;99180.16;;;21.90;56.26
46129;BME280;31860;45.186;5.790;2023-04-28T09:00:56;99180.88;;;21.94;56.57
46129;BME280;31860;45.186;5.790;2023-04-28T09:03:22;99179.88;;;21.96;55.90
46129;BME280;31860;45.186;5.790;2023-04-28T09:05:47;99188.59;;;22.00;55.27
46129;BME280;31860;45.186;5.790;2023-04-28T09:08:13;99188.44;;;22.03;55.26
46129;BME280;31860;45.186;5.790;2023-04-28T09:10:39;99194.47;;;22.06;54.88
46129;BME280;31860;45.186;5.790;2023-04-28T09:13:05;99208.53;;;22.10;54.53
46129;BME280;31860;45.186;5.790;2023-04-28T09:15:34;99202.19;;;22.12;54.63
46129;BME280;31860;45.186;5.790;2023-04-28T09:18:01;99194.06;;;22.15;54.65
46129;BME280;31860;45.186;5.790;2023-04-28T09:20:29;99188.75;;;22.15;54.68
46129;BME280;31860;45.186;5.790;2023-04-28T09:22:56;99189.53;;;22.17;54.77
46129;BME280;31860;45.186;5.790;2023-04-28T09:25:36;99190.47;;;22.16;54.66
46129;BME280;31860;45.186;5.790;2023-04-28T09:28:18;99185.13;;;22.16;53.92
46129;BME280;31860;45.186;5.790;2023-04-28T09:30:44;99182.47;;;22.16;54.63
46129;BME280;31860;45.186;5.790;2023-04-28T09:33:09;99177.16;;;22.16;54.47
46129;BME280;31860;45.186;5.790;2023-04-28T09:35:41;99177.06;;;22.18;54.36
46129;BME280;31860;45.186;5.790;2023-04-28T09:38:07;99178.81;;;22.19;54.67
46129;BME280;31860;45.186;5.790;2023-04-28T09:45:55;99171.75;;;22.18;54.18
46129;BME280;31860;45.186;5.790;2023-04-28T09:50:57;99162.97;;;22.16;53.63
46129;BME280;31860;45.186;5.790;2023-04-28T09:53:23;99154.16;;;22.15;53.45
46129;BME280;31860;45.186;5.790;2023-04-28T09:55:51;99141.69;;;22.16;53.39
46129;BME280;31860;45.186;5.790;2023-04-28T09:58:19;99147.00;;;22.16;53.95
46129;BME280;31860;45.186;5.790;2023-04-28T10:00:45;99147.81;;;22.18;54.27
46129;BME280;31860;45.186;5.790;2023-04-28T10:03:14;99142.47;;;22.18;54.01
46129;BME280;31860;45.186;5.790;2023-04-28T10:05:40;99134.41;;;22.19;54.07
46129;BME280;31860;45.186;5.790;2023-04-28T10:08:06;99129.03;;;22.21;54.58
46129;BME280;31860;45.186;5.790;2023-04-28T10:10:32;99131.47;;;22.25;54.75
46129;BME280;31860;45.186;5.790;2023-04-28T10:12:57;99128.59;;;22.30;54.44
46129;BME280;31860;45.186;5.790;2023-04-28T10:15:23;99130.09;;;22.35;54.51
46129;BME280;31860;45.186;5.790;2023-04-28T10:17:49;99127.94;;;22.43;54.31
46129;BME280;31860;45.186;5.790;2023-04-28T10:20:15;99126.59;;;22.52;54.34
46129;BME280;31860;45.186;5.790;2023-04-28T10:25:30;99128.41;;;22.70;53.82
46129;BME280;31860;45.186;5.790;2023-04-28T10:27:57;99126.13;;;22.80;53.93
46129;BME280;31860;45.186;5.790;2023-04-28T10:30:26;99123.84;;;22.89;53.48
46129;BME280;31860;45.186;5.790;2023-04-28T10:40:38;99123.00;;;23.23;52.75
46129;BME280;31860;45.186;5.790;2023-04-28T10:43:05;99115.47;;;23.31;52.59
46129;BME280;31860;45.186;5.790;2023-04-28T10:48:19;99107.63;;;23.45;52.13
46129;BME280;31860;45.186;5.790;2023-04-28T10:58:53;99091.25;;;23.68;51.15
46129;BME280;31860;45.186;5.790;2023-04-28T11:01:30;99081.16;;;23.73;51.63
46129;BME280;31860;45.186;5.790;2023-04-28T11:04:07;99084.28;;;23.81;50.92
46129;BME280;31860;45.186;5.790;2023-04-28T11:06:45;99076.97;;;23.85;51.07
46129;BME280;31860;45.186;5.790;2023-04-28T11:11:36;99071.88;;;23.96;51.63
46129;BME280;31860;45.186;5.790;2023-04-28T11:16:55;99069.41;;;24.08;50.20
46129;BME280;31860;45.186;5.790;2023-04-28T11:21:58;99060.88;;;24.17;49.83
46129;BME280;31860;45.186;5.790;2023-04-28T11:24:25;99058.03;;;24.20;49.91
46129;BME280;31860;45.186;5.790;2023-04-28T11:26:54;99044.69;;;24.20;50.10
46129;BME280;31860;45.186;5.790;2023-04-28T11:29:35;99046.31;;;24.23;49.93
46129;BME280;31860;45.186;5.790;2023-04-28T11:32:05;99045.47;;;24.22;50.12
46129;BME280;31860;45.186;5.790;2023-04-28T11:34:31;99032.13;;;24.22;50.64
46129;BME280;31860;45.186;5.790;2023-04-28T11:36:57;99032.13;;;24.22;50.30
46129;BME280;31860;45.186;5.790;2023-04-28T11:39:27;99025.03;;;24.21;50.25
46129;BME280;31860;45.186;5.790;2023-04-28T11:41:53;99019.78;;;24.20;50.25
46129;BME280;31860;45.186;5.790;2023-04-28T11:44:21;99012.75;;;24.19;50.23
46129;BME280;31860;45.186;5.790;2023-04-28T11:46:53;99018.00;;;24.20;50.39
46129;BME280;31860;45.186;5.790;2023-04-28T11:49:28;99005.56;;;24.19;51.02
46129;BME280;31860;45.186;5.790;2023-04-28T11:52:03;99009.97;;;24.20;51.37
46129;BME280;31860;45.186;5.790;2023-04-28T11:54:30;99004.44;;;24.23;50.92
46129;BME280;31860;45.186;5.790;2023-04-28T11:56:58;99001.78;;;24.23;50.49
46129;BME280;31860;45.186;5.790;2023-04-28T11:59:29;98999.00;;;24.25;50.42
46129;BME280;31860;45.186;5.790;2023-04-28T12:01:57;98991.88;;;24.25;50.21
46129;BME280;31860;45.186;5.790;2023-04-28T12:04:30;98993.59;;;24.26;50.38
46129;BME280;31860;45.186;5.790;2023-04-28T12:07:02;98993.50;;;24.28;50.35
46129;BME280;31860;45.186;5.790;2023-04-28T12:09:29;98983.69;;;24.28;50.53
46129;BME280;31860;45.186;5.790;2023-04-28T12:12:02;98979.19;;;24.29;50.35
46129;BME280;31860;45.186;5.790;2023-04-28T12:14:29;98976.44;;;24.30;50.45
46129;BME280;31860;45.186;5.790;2023-04-28T12:16:57;98973.75;;;24.30;50.41
46129;BME280;31860;45.186;5.790;2023-04-28T12:19:22;98975.50;;;24.31;50.51
46129;BME280;31860;45.186;5.790;2023-04-28T12:21:59;98971.03;;;24.32;50.15
46129;BME280;31860;45.186;5.790;2023-04-28T12:24:25;98966.53;;;24.32;50.68
46129;BME280;31860;45.186;5.790;2023-04-28T12:26:51;98969.19;;;24.32;51.10
46129;BME280;31860;45.186;5.790;2023-04-28T12:29:43;98961.13;;;24.34;51.33
46129;BME280;31860;45.186;5.790;2023-04-28T12:32:10;98965.50;;;24.35;51.28
46129;BME280;31860;45.186;5.790;2023-04-28T12:34:37;98965.41;;;24.36;51.42
46129;BME280;31860;45.186;5.790;2023-04-28T12:37:04;98963.50;;;24.38;51.41
46129;BME280;31860;45.186;5.790;2023-04-28T12:39:34;98959.88;;;24.39;51.79
46129;BME280;31860;45.186;5.790;2023-04-28T12:42:01;98957.13;;;24.41;52.35
46129;BME280;31860;45.186;5.790;2023-04-28T12:44:27;98959.59;;;24.44;51.96
46129;BME280;31860;45.186;5.790;2023-04-28T12:46:53;98964.84;;;24.45;51.88
46129;BME280;31860;45.186;5.790;2023-04-28T12:49:20;98954.91;;;24.48;52.15
46129;BME280;31860;45.186;5.790;2023-04-28T12:51:45;98954.00;;;24.49;52.21
46129;BME280;31860;45.186;5.790;2023-04-28T12:54:11;98960.97;;;24.51;51.86
46129;BME280;31860;45.186;5.790;2023-04-28T12:56:36;98962.66;;;24.52;51.95
46129;BME280;31860;45.186;5.790;2023-04-28T12:59:02;98949.22;;;24.54;52.40
46129;BME280;31860;45.186;5.790;2023-04-28T13:01:28;98950.97;;;24.55;52.42
46129;BME280;31860;45.186;5.790;2023-04-28T13:03:54;98946.38;;;24.57;52.10
46129;BME280;31860;45.186;5.790;2023-04-28T13:06:19;98948.09;;;24.58;51.79
46129;BME280;31860;45.186;5.790;2023-04-28T13:08:45;98945.31;;;24.59;51.51
46129;BME280;31860;45.186;5.790;2023-04-28T13:11:10;98947.81;;;24.62;51.54
46129;BME280;31860;45.186;5.790;2023-04-28T13:13:36;98955.53;;;24.67;51.84
46129;BME280;31860;45.186;5.790;2023-04-28T13:16:02;98943.03;;;24.67;51.92
46129;BME280;31860;45.186;5.790;2023-04-28T13:18:29;98942.06;;;24.68;52.23
46129;BME280;31860;45.186;5.790;2023-04-28T13:20:54;98940.16;;;24.70;51.89
46129;BME280;31860;45.186;5.790;2023-04-28T13:23:20;98947.19;;;24.73;51.57
46129;BME280;31860;45.186;5.790;2023-04-28T13:25:46;98949.75;;;24.74;51.84
46129;BME280;31860;45.186;5.790;2023-04-28T13:28:11;98940.81;;;24.75;52.30
46129;BME280;31860;45.186;5.790;2023-04-28T13:30:38;98940.59;;;24.78;52.23
46129;BME280;31860;45.186;5.790;2023-04-28T13:33:03;98944.16;;;24.79;52.11